UAE35Q EDDM-OMDB
Flight info
| Callsign | UAE35Q |
|---|---|
| Flight time | N/A |
| Altitude | 33000 |
| Route | VAVOR3S VAVOR M867 RADIZ DCT GIMIX/N0472F370 DCT EPODO DCT DABAR DCT SIRMI DCT REMPI DCT TIKSA DCT VAKSU DCT RODON DCT DIMIS DCT IPTES UL604 SALUN N705 MMA P751 DASUM Y234 FYM/N0485F390 M872 BDB Y214 RAPMA DCT KUVSO DCT KATIT DCT PEKEM M628 RIGIL G783 ELUDA/N0466F350 G783 ASPED Q308 KIPOK Q568 IMPED |
| Aircraft | A388/J-SADE2E3FGHIJ3J4J5M1RWXY/LB1D1 |
Departure
| Time | N/A |
|---|---|
| Airport | Munich Airport (EDDM) |
Arrival
| Time | 2026-04-26 04:20 |
|---|---|
| Airport | Dubai International Airport (OMDB) |
| Time | Latitude | Longitude | Altitude | Speed | Heading |
|---|---|---|---|---|---|
| 2026-04-26 01:19 | 28.73010 | 31.18332 | 32947 ft | 550 kts | 143° |
| 2026-04-26 01:20 | 28.67703 | 31.24618 | 32890 ft | 552 kts | 141° |
| 2026-04-26 01:20 | 28.62586 | 31.31135 | 32932 ft | 552 kts | 140° |
| 2026-04-26 01:21 | 28.57464 | 31.37643 | 32934 ft | 552 kts | 141° |
| 2026-04-26 01:21 | 28.52349 | 31.44080 | 32943 ft | 552 kts | 141° |
| 2026-04-26 01:22 | 28.47190 | 31.50559 | 32948 ft | 553 kts | 141° |
| 2026-04-26 01:22 | 28.42026 | 31.57021 | 32948 ft | 552 kts | 141° |
| 2026-04-26 01:23 | 28.36857 | 31.63484 | 32955 ft | 553 kts | 141° |
| 2026-04-26 01:23 | 28.32559 | 31.68846 | 32953 ft | 552 kts | 141° |
| 2026-04-26 01:24 | 28.26550 | 31.76333 | 32936 ft | 553 kts | 141° |
| 2026-04-26 01:24 | 28.22248 | 31.81705 | 32930 ft | 554 kts | 141° |
| 2026-04-26 01:25 | 28.17062 | 31.88152 | 32964 ft | 553 kts | 141° |
| 2026-04-26 01:25 | 28.11859 | 31.94588 | 32972 ft | 555 kts | 141° |
| 2026-04-26 01:26 | 28.05804 | 32.02100 | 32974 ft | 556 kts | 140° |
| 2026-04-26 01:26 | 28.01278 | 32.09351 | 32972 ft | 574 kts | 126° |
| 2026-04-26 01:27 | 27.98131 | 32.15975 | 32969 ft | 575 kts | 126° |
| 2026-04-26 01:27 | 27.94309 | 32.23924 | 32971 ft | 575 kts | 126° |
| 2026-04-26 01:28 | 27.90473 | 32.31863 | 32921 ft | 574 kts | 126° |
| 2026-04-26 01:28 | 27.86636 | 32.39787 | 32932 ft | 575 kts | 126° |
| 2026-04-26 01:29 | 27.82813 | 32.47663 | 32943 ft | 576 kts | 126° |
| 2026-04-26 01:29 | 27.78959 | 32.55612 | 32948 ft | 577 kts | 126° |
| 2026-04-26 01:30 | 27.75095 | 32.63557 | 32937 ft | 578 kts | 126° |
| 2026-04-26 01:30 | 27.71218 | 32.71501 | 32938 ft | 579 kts | 126° |
| 2026-04-26 01:31 | 27.67330 | 32.79460 | 32937 ft | 579 kts | 126° |
| 2026-04-26 01:31 | 27.63464 | 32.87366 | 32938 ft | 580 kts | 126° |
| 2026-04-26 01:32 | 27.59564 | 32.95307 | 32917 ft | 579 kts | 126° |
| 2026-04-26 01:32 | 27.55652 | 33.03269 | 32922 ft | 581 kts | 126° |
| 2026-04-26 01:33 | 27.53687 | 33.07261 | 33084 ft | 585 kts | 126° |
| 2026-04-26 01:33 | 27.51741 | 33.11221 | 33573 ft | 586 kts | 126° |
| 2026-04-26 01:33 | 27.49763 | 33.15243 | 33946 ft | 589 kts | 127° |
| 2026-04-26 01:33 | 27.47766 | 33.19296 | 34301 ft | 591 kts | 127° |
| 2026-04-26 01:34 | 27.45774 | 33.23330 | 34799 ft | 590 kts | 127° |
| 2026-04-26 01:34 | 27.43782 | 33.27370 | 35374 ft | 587 kts | 127° |
| 2026-04-26 01:34 | 27.41803 | 33.31382 | 35877 ft | 586 kts | 127° |
| 2026-04-26 01:34 | 27.39824 | 33.35379 | 36398 ft | 584 kts | 127° |
| 2026-04-26 01:35 | 27.37845 | 33.39370 | 36891 ft | 583 kts | 127° |
| 2026-04-26 01:35 | 27.35870 | 33.43349 | 37394 ft | 581 kts | 127° |
| 2026-04-26 01:35 | 27.33902 | 33.47310 | 37832 ft | 580 kts | 127° |
| 2026-04-26 01:35 | 27.31962 | 33.51205 | 38324 ft | 578 kts | 127° |
| 2026-04-26 01:36 | 27.29996 | 33.55153 | 38734 ft | 578 kts | 127° |
| 2026-04-26 01:36 | 27.28026 | 33.59103 | 38866 ft | 578 kts | 127° |
| 2026-04-26 01:37 | 27.22187 | 33.70820 | 38887 ft | 572 kts | 127° |
| 2026-04-26 01:37 | 27.18338 | 33.78572 | 38882 ft | 575 kts | 124° |
| 2026-04-26 01:38 | 27.15187 | 33.86909 | 38882 ft | 583 kts | 118° |
| 2026-04-26 01:38 | 27.12196 | 33.95364 | 38864 ft | 582 kts | 119° |
| 2026-04-26 01:39 | 27.09190 | 34.03781 | 38889 ft | 580 kts | 119° |
| 2026-04-26 01:39 | 27.06208 | 34.12131 | 38882 ft | 580 kts | 119° |
| 2026-04-26 01:40 | 27.03206 | 34.20524 | 38873 ft | 579 kts | 119° |
| 2026-04-26 01:40 | 27.00204 | 34.28902 | 38867 ft | 579 kts | 119° |
| 2026-04-26 01:41 | 26.97197 | 34.37268 | 38866 ft | 578 kts | 119° |
| 2026-04-26 01:41 | 26.94205 | 34.45569 | 38867 ft | 578 kts | 119° |
| 2026-04-26 01:42 | 26.91191 | 34.53918 | 38859 ft | 578 kts | 119° |
| 2026-04-26 01:42 | 26.88169 | 34.62275 | 38863 ft | 579 kts | 119° |
| 2026-04-26 01:43 | 26.85137 | 34.70635 | 38872 ft | 580 kts | 119° |
| 2026-04-26 01:43 | 26.82119 | 34.78937 | 38876 ft | 580 kts | 119° |
| 2026-04-26 01:44 | 26.79070 | 34.87302 | 38882 ft | 580 kts | 119° |
| 2026-04-26 01:44 | 26.76021 | 34.95663 | 38879 ft | 580 kts | 119° |
| 2026-04-26 01:45 | 26.72973 | 35.04012 | 38885 ft | 580 kts | 119° |
| 2026-04-26 01:45 | 26.69933 | 35.12313 | 38885 ft | 580 kts | 119° |
| 2026-04-26 01:46 | 26.66871 | 35.20642 | 38886 ft | 580 kts | 119° |
| 2026-04-26 01:46 | 26.63806 | 35.28988 | 38877 ft | 579 kts | 119° |
| 2026-04-26 01:47 | 26.60742 | 35.37308 | 38884 ft | 579 kts | 119° |
| 2026-04-26 01:47 | 26.57688 | 35.45574 | 38880 ft | 579 kts | 119° |
| 2026-04-26 01:48 | 26.54585 | 35.53873 | 38876 ft | 578 kts | 120° |
| 2026-04-26 01:48 | 26.51418 | 35.62128 | 38879 ft | 578 kts | 120° |
| 2026-04-26 01:49 | 26.48252 | 35.70381 | 38885 ft | 578 kts | 120° |
| 2026-04-26 01:49 | 26.45108 | 35.78582 | 38854 ft | 578 kts | 119° |
| 2026-04-26 01:50 | 26.41945 | 35.86819 | 38879 ft | 578 kts | 119° |
| 2026-04-26 01:50 | 26.38775 | 35.95058 | 38880 ft | 578 kts | 119° |
| 2026-04-26 01:51 | 26.35600 | 36.03291 | 38884 ft | 577 kts | 120° |
| 2026-04-26 01:51 | 26.32450 | 36.11444 | 38881 ft | 578 kts | 119° |
| 2026-04-26 01:52 | 26.29265 | 36.19672 | 38885 ft | 578 kts | 120° |
| 2026-04-26 01:52 | 26.26075 | 36.27893 | 38885 ft | 577 kts | 119° |
| 2026-04-26 01:53 | 26.22887 | 36.36102 | 38880 ft | 577 kts | 120° |
| 2026-04-26 01:53 | 26.19690 | 36.44307 | 38884 ft | 577 kts | 120° |
| 2026-04-26 01:54 | 26.16254 | 36.52258 | 38879 ft | 571 kts | 126° |
| 2026-04-26 01:54 | 26.12419 | 36.60004 | 38880 ft | 571 kts | 126° |
| 2026-04-26 01:55 | 26.08599 | 36.67763 | 38886 ft | 572 kts | 126° |
| 2026-04-26 01:55 | 26.04802 | 36.75454 | 38865 ft | 572 kts | 126° |
| 2026-04-26 01:56 | 26.00974 | 36.83192 | 38889 ft | 571 kts | 126° |
| 2026-04-26 01:56 | 25.97146 | 36.90919 | 38894 ft | 571 kts | 126° |
| 2026-04-26 01:57 | 25.93315 | 36.98639 | 38895 ft | 570 kts | 126° |
| 2026-04-26 01:57 | 25.89510 | 37.06305 | 38898 ft | 570 kts | 126° |
| 2026-04-26 01:58 | 25.85678 | 37.13999 | 38894 ft | 569 kts | 126° |
| 2026-04-26 01:58 | 25.81839 | 37.21683 | 38890 ft | 569 kts | 126° |
| 2026-04-26 01:59 | 25.78007 | 37.29361 | 38894 ft | 568 kts | 126° |
| 2026-04-26 01:59 | 25.74218 | 37.36982 | 38900 ft | 568 kts | 126° |
| 2026-04-26 02:00 | 25.70401 | 37.44648 | 38918 ft | 567 kts | 125° |
| 2026-04-26 02:00 | 25.66587 | 37.52284 | 38925 ft | 566 kts | 125° |
| 2026-04-26 02:01 | 25.62769 | 37.59915 | 38924 ft | 566 kts | 126° |
| 2026-04-26 02:01 | 25.58950 | 37.67535 | 38920 ft | 566 kts | 125° |
| 2026-04-26 02:02 | 25.55154 | 37.75099 | 38917 ft | 565 kts | 125° |
| 2026-04-26 02:02 | 25.51330 | 37.82705 | 38914 ft | 565 kts | 125° |
| 2026-04-26 02:03 | 25.47501 | 37.90308 | 38919 ft | 565 kts | 125° |
| 2026-04-26 02:03 | 25.43671 | 37.97900 | 38913 ft | 565 kts | 125° |
| 2026-04-26 02:04 | 25.39864 | 38.05435 | 38907 ft | 564 kts | 125° |
| 2026-04-26 02:04 | 25.36033 | 38.13007 | 38908 ft | 565 kts | 126° |
| 2026-04-26 02:05 | 25.32196 | 38.20575 | 38899 ft | 564 kts | 125° |
| 2026-04-26 02:05 | 25.28360 | 38.28130 | 38915 ft | 564 kts | 125° |
| 2026-04-26 02:06 | 25.24539 | 38.35643 | 38932 ft | 565 kts | 125° |
| 2026-04-26 02:06 | 25.20687 | 38.43206 | 38931 ft | 565 kts | 126° |
| 2026-04-26 02:07 | 25.16835 | 38.50757 | 38940 ft | 565 kts | 126° |
| 2026-04-26 02:07 | 25.12998 | 38.58256 | 38935 ft | 564 kts | 126° |
| 2026-04-26 02:08 | 25.09135 | 38.65785 | 38944 ft | 563 kts | 125° |
| 2026-04-26 02:08 | 25.05280 | 38.73292 | 38944 ft | 562 kts | 125° |
| 2026-04-26 02:09 | 25.01433 | 38.80774 | 38946 ft | 560 kts | 126° |
| 2026-04-26 02:09 | 24.97614 | 38.88184 | 38946 ft | 559 kts | 125° |
| 2026-04-26 02:10 | 24.93770 | 38.95630 | 38944 ft | 559 kts | 125° |
| 2026-04-26 02:10 | 24.89915 | 39.03078 | 38954 ft | 560 kts | 125° |
| 2026-04-26 02:11 | 24.86053 | 39.10529 | 38961 ft | 561 kts | 125° |
| 2026-04-26 02:11 | 24.82187 | 39.17975 | 38977 ft | 560 kts | 125° |
| 2026-04-26 02:12 | 24.78343 | 39.25373 | 38981 ft | 560 kts | 125° |
| 2026-04-26 02:12 | 24.74473 | 39.32809 | 38988 ft | 560 kts | 125° |
| 2026-04-26 02:13 | 24.70601 | 39.40238 | 38994 ft | 560 kts | 125° |
| 2026-04-26 02:13 | 24.66725 | 39.47663 | 38990 ft | 560 kts | 125° |
| 2026-04-26 02:14 | 24.62849 | 39.55075 | 38989 ft | 559 kts | 125° |
| 2026-04-26 02:14 | 24.58995 | 39.62431 | 39018 ft | 559 kts | 125° |
| 2026-04-26 02:15 | 24.55674 | 39.70195 | 39019 ft | 567 kts | 112° |
| 2026-04-26 02:15 | 24.53948 | 39.78667 | 39019 ft | 573 kts | 97° |
| 2026-04-26 02:16 | 24.53147 | 39.87381 | 39016 ft | 573 kts | 97° |
| 2026-04-26 02:16 | 24.52312 | 39.96013 | 39009 ft | 573 kts | 97° |
| 2026-04-26 02:17 | 24.51465 | 40.04712 | 38993 ft | 573 kts | 97° |
| 2026-04-26 02:17 | 24.50616 | 40.13399 | 38991 ft | 572 kts | 97° |
| 2026-04-26 02:18 | 24.49763 | 40.22082 | 38987 ft | 572 kts | 97° |
| 2026-04-26 02:18 | 24.48911 | 40.30704 | 38993 ft | 571 kts | 97° |
| 2026-04-26 02:19 | 24.48051 | 40.39361 | 38993 ft | 571 kts | 97° |
| 2026-04-26 02:19 | 24.47186 | 40.48012 | 38976 ft | 570 kts | 97° |
| 2026-04-26 02:20 | 24.46317 | 40.56653 | 38996 ft | 569 kts | 97° |
| 2026-04-26 02:20 | 24.45451 | 40.65222 | 38996 ft | 568 kts | 97° |
| 2026-04-26 02:21 | 24.44573 | 40.73833 | 38996 ft | 568 kts | 97° |
| 2026-04-26 02:21 | 24.43689 | 40.82449 | 38984 ft | 568 kts | 98° |
| 2026-04-26 02:22 | 24.42801 | 40.91071 | 38987 ft | 569 kts | 98° |
| 2026-04-26 02:22 | 24.41913 | 40.99637 | 39007 ft | 569 kts | 97° |
| 2026-04-26 02:23 | 24.41014 | 41.08257 | 39012 ft | 569 kts | 97° |
| 2026-04-26 02:23 | 24.40112 | 41.16877 | 39015 ft | 568 kts | 97° |
| 2026-04-26 02:24 | 24.39206 | 41.25493 | 39015 ft | 568 kts | 97° |
| 2026-04-26 02:24 | 24.38302 | 41.34036 | 39020 ft | 568 kts | 97° |
| 2026-04-26 02:25 | 24.37387 | 41.42639 | 39022 ft | 568 kts | 98° |
| 2026-04-26 02:25 | 24.36467 | 41.51240 | 39024 ft | 567 kts | 98° |
| 2026-04-26 02:26 | 24.35544 | 41.59826 | 39031 ft | 566 kts | 98° |
| 2026-04-26 02:26 | 24.34625 | 41.68328 | 39025 ft | 565 kts | 98° |
| 2026-04-26 02:27 | 24.33695 | 41.76882 | 39019 ft | 565 kts | 98° |
| 2026-04-26 02:27 | 24.32346 | 41.85330 | 39011 ft | 562 kts | 108° |
| 2026-04-26 02:28 | 24.30166 | 41.93533 | 39006 ft | 561 kts | 108° |
| 2026-04-26 02:28 | 24.28027 | 42.01687 | 39009 ft | 560 kts | 108° |
| 2026-04-26 02:29 | 24.25871 | 42.09884 | 39011 ft | 559 kts | 108° |
| 2026-04-26 02:29 | 24.23707 | 42.18073 | 39010 ft | 559 kts | 108° |
| 2026-04-26 02:30 | 24.21540 | 42.26250 | 39008 ft | 559 kts | 108° |
| 2026-04-26 02:30 | 24.19385 | 42.34366 | 39009 ft | 559 kts | 108° |
| 2026-04-26 02:31 | 24.17211 | 42.42537 | 39017 ft | 559 kts | 108° |
| 2026-04-26 02:31 | 24.15034 | 42.50696 | 39022 ft | 558 kts | 108° |
| 2026-04-26 02:32 | 24.12854 | 42.58847 | 39022 ft | 558 kts | 108° |
| 2026-04-26 02:32 | 24.10673 | 42.66984 | 39025 ft | 557 kts | 108° |
| 2026-04-26 02:33 | 24.08503 | 42.75062 | 39026 ft | 557 kts | 108° |
| 2026-04-26 02:33 | 24.06315 | 42.83186 | 39028 ft | 557 kts | 108° |
| 2026-04-26 02:34 | 24.04123 | 42.91312 | 39030 ft | 557 kts | 108° |
| 2026-04-26 02:34 | 24.01925 | 42.99432 | 39029 ft | 557 kts | 108° |
| 2026-04-26 02:35 | 23.99738 | 43.07496 | 39046 ft | 556 kts | 108° |
| 2026-04-26 02:35 | 23.97537 | 43.15592 | 39047 ft | 556 kts | 108° |
| 2026-04-26 02:36 | 23.95328 | 43.23701 | 39046 ft | 556 kts | 109° |
| 2026-04-26 02:36 | 23.93118 | 43.31793 | 39059 ft | 555 kts | 109° |
| 2026-04-26 02:37 | 23.90922 | 43.39818 | 39056 ft | 555 kts | 109° |
| 2026-04-26 02:37 | 23.88704 | 43.47902 | 39058 ft | 555 kts | 109° |
| 2026-04-26 02:38 | 23.86484 | 43.55979 | 39050 ft | 555 kts | 109° |
| 2026-04-26 02:38 | 23.84262 | 43.64044 | 39046 ft | 555 kts | 109° |
| 2026-04-26 02:39 | 23.82048 | 43.72060 | 39049 ft | 555 kts | 109° |
| 2026-04-26 02:39 | 23.79815 | 43.80128 | 39046 ft | 555 kts | 109° |
| 2026-04-26 02:40 | 23.77734 | 43.88236 | 39039 ft | 556 kts | 102° |
| 2026-04-26 02:40 | 23.76818 | 43.96619 | 39033 ft | 557 kts | 94° |
| 2026-04-26 02:41 | 23.76205 | 44.05059 | 39036 ft | 558 kts | 95° |
| 2026-04-26 02:41 | 23.75574 | 44.13438 | 39035 ft | 558 kts | 95° |
| 2026-04-26 02:42 | 23.74937 | 44.21888 | 39031 ft | 559 kts | 95° |
| 2026-04-26 02:42 | 23.74296 | 44.30339 | 39039 ft | 559 kts | 95° |
| 2026-04-26 02:43 | 23.73331 | 44.42954 | 39035 ft | 559 kts | 95° |
| 2026-04-26 02:43 | 23.72679 | 44.51398 | 39048 ft | 558 kts | 95° |
| 2026-04-26 02:44 | 23.72024 | 44.59833 | 39041 ft | 558 kts | 95° |
| 2026-04-26 02:44 | 23.71364 | 44.68256 | 39051 ft | 556 kts | 95° |
| 2026-04-26 02:45 | 23.70703 | 44.76654 | 39045 ft | 555 kts | 95° |
| 2026-04-26 02:45 | 23.70041 | 44.84990 | 39038 ft | 555 kts | 95° |
| 2026-04-26 02:46 | 23.69372 | 44.93369 | 39030 ft | 554 kts | 95° |
| 2026-04-26 02:46 | 23.68697 | 45.01743 | 39011 ft | 554 kts | 95° |
| 2026-04-26 02:47 | 23.68019 | 45.10111 | 39029 ft | 553 kts | 95° |
| 2026-04-26 02:47 | 23.67342 | 45.18409 | 39020 ft | 552 kts | 95° |
| 2026-04-26 02:48 | 23.66656 | 45.26755 | 39014 ft | 552 kts | 95° |
| 2026-04-26 02:48 | 23.65966 | 45.35100 | 39004 ft | 552 kts | 95° |
| 2026-04-26 02:49 | 23.65272 | 45.43446 | 39001 ft | 553 kts | 95° |
| 2026-04-26 02:49 | 23.64577 | 45.51747 | 39004 ft | 554 kts | 95° |
| 2026-04-26 02:50 | 23.63872 | 45.60112 | 39011 ft | 554 kts | 95° |
| 2026-04-26 02:50 | 23.63161 | 45.68483 | 39012 ft | 555 kts | 95° |
| 2026-04-26 02:51 | 23.62451 | 45.76801 | 39005 ft | 555 kts | 95° |
| 2026-04-26 02:51 | 23.61729 | 45.85194 | 39005 ft | 556 kts | 95° |
| 2026-04-26 02:52 | 23.61004 | 45.93581 | 39008 ft | 556 kts | 95° |
| 2026-04-26 02:52 | 23.60273 | 46.01984 | 39007 ft | 557 kts | 95° |
| 2026-04-26 02:53 | 23.59535 | 46.10397 | 39011 ft | 557 kts | 95° |
| 2026-04-26 02:53 | 23.58800 | 46.18744 | 39015 ft | 558 kts | 95° |
| 2026-04-26 02:54 | 23.58053 | 46.27164 | 39021 ft | 558 kts | 95° |
| 2026-04-26 02:54 | 23.57302 | 46.35575 | 39027 ft | 557 kts | 95° |
| 2026-04-26 02:55 | 23.56552 | 46.43924 | 39029 ft | 557 kts | 95° |
| 2026-04-26 02:55 | 23.55793 | 46.52333 | 39035 ft | 558 kts | 95° |
| 2026-04-26 02:56 | 23.55027 | 46.60745 | 39029 ft | 557 kts | 95° |
| 2026-04-26 02:56 | 23.54259 | 46.69134 | 39038 ft | 556 kts | 95° |
| 2026-04-26 02:57 | 23.53503 | 46.77364 | 39033 ft | 556 kts | 95° |
| 2026-04-26 02:57 | 23.52727 | 46.85737 | 39026 ft | 555 kts | 95° |
| 2026-04-26 02:58 | 23.51947 | 46.94113 | 39024 ft | 555 kts | 95° |
| 2026-04-26 02:58 | 23.51164 | 47.02467 | 39011 ft | 556 kts | 95° |
| 2026-04-26 02:59 | 23.50374 | 47.10852 | 39013 ft | 556 kts | 95° |
| 2026-04-26 02:59 | 23.49587 | 47.19161 | 39025 ft | 555 kts | 95° |
| 2026-04-26 03:00 | 23.48789 | 47.27526 | 39016 ft | 555 kts | 95° |
| 2026-04-26 03:00 | 23.47989 | 47.35875 | 39014 ft | 554 kts | 95° |
| 2026-04-26 03:01 | 23.47184 | 47.44227 | 39016 ft | 554 kts | 95° |
| 2026-04-26 03:01 | 23.46382 | 47.52505 | 39006 ft | 553 kts | 95° |
| 2026-04-26 03:02 | 23.45569 | 47.60843 | 39011 ft | 553 kts | 95° |
| 2026-04-26 03:02 | 23.44752 | 47.69174 | 38985 ft | 553 kts | 95° |
| 2026-04-26 03:03 | 23.43933 | 47.77492 | 39000 ft | 553 kts | 95° |
| 2026-04-26 03:03 | 23.43114 | 47.85753 | 39001 ft | 553 kts | 95° |
| 2026-04-26 03:04 | 23.42286 | 47.94074 | 38993 ft | 553 kts | 95° |
| 2026-04-26 03:04 | 23.41453 | 48.02392 | 38986 ft | 553 kts | 95° |
| 2026-04-26 03:05 | 23.40615 | 48.10714 | 38978 ft | 553 kts | 95° |
| 2026-04-26 03:05 | 23.39778 | 48.18984 | 38976 ft | 553 kts | 95° |
| 2026-04-26 03:06 | 23.38931 | 48.27307 | 38993 ft | 553 kts | 95° |
| 2026-04-26 03:06 | 23.38155 | 48.35634 | 38979 ft | 552 kts | 90° |
| 2026-04-26 03:07 | 23.37842 | 48.43979 | 38981 ft | 551 kts | 90° |
| 2026-04-26 03:07 | 23.37509 | 48.52261 | 38971 ft | 552 kts | 90° |
| 2026-04-26 03:08 | 23.37167 | 48.60605 | 38972 ft | 552 kts | 90° |
| 2026-04-26 03:08 | 23.36820 | 48.68948 | 38967 ft | 552 kts | 90° |
| 2026-04-26 03:09 | 23.36470 | 48.77294 | 38967 ft | 552 kts | 90° |
| 2026-04-26 03:09 | 23.36114 | 48.85644 | 38968 ft | 552 kts | 90° |
| 2026-04-26 03:10 | 23.35757 | 48.93935 | 38975 ft | 552 kts | 90° |
| 2026-04-26 03:10 | 23.35394 | 49.02271 | 38973 ft | 551 kts | 90° |
| 2026-04-26 03:11 | 23.34634 | 49.10570 | 38965 ft | 552 kts | 98° |
| 2026-04-26 03:11 | 23.33437 | 49.18776 | 38966 ft | 552 kts | 97° |
| 2026-04-26 03:12 | 23.32260 | 49.27024 | 38966 ft | 552 kts | 97° |
| 2026-04-26 03:12 | 23.31073 | 49.35283 | 38954 ft | 552 kts | 97° |
| 2026-04-26 03:13 | 23.29878 | 49.43542 | 38955 ft | 553 kts | 97° |
| 2026-04-26 03:13 | 23.28680 | 49.51779 | 38976 ft | 552 kts | 97° |
| 2026-04-26 03:14 | 23.27486 | 49.59961 | 38974 ft | 551 kts | 97° |
| 2026-04-26 03:14 | 23.26279 | 49.68200 | 38956 ft | 551 kts | 97° |
| 2026-04-26 03:15 | 23.25073 | 49.76407 | 38965 ft | 550 kts | 97° |
| 2026-04-26 03:15 | 23.23859 | 49.84631 | 38955 ft | 551 kts | 97° |
| 2026-04-26 03:16 | 23.22650 | 49.92796 | 38955 ft | 551 kts | 97° |
| 2026-04-26 03:16 | 23.21427 | 50.01022 | 38949 ft | 551 kts | 97° |
| 2026-04-26 03:17 | 23.20202 | 50.09233 | 38971 ft | 550 kts | 97° |
| 2026-04-26 03:17 | 23.18975 | 50.17428 | 38966 ft | 550 kts | 97° |
| 2026-04-26 03:18 | 23.17750 | 50.25577 | 38966 ft | 549 kts | 97° |
| 2026-04-26 03:18 | 23.16516 | 50.33761 | 38967 ft | 549 kts | 97° |
| 2026-04-26 03:19 | 23.15275 | 50.41957 | 38963 ft | 549 kts | 97° |
| 2026-04-26 03:19 | 23.14030 | 50.50150 | 38959 ft | 550 kts | 97° |
| 2026-04-26 03:20 | 23.12789 | 50.58291 | 38972 ft | 549 kts | 97° |
| 2026-04-26 03:20 | 23.11537 | 50.66472 | 38971 ft | 549 kts | 97° |
| 2026-04-26 03:21 | 23.10283 | 50.74635 | 38961 ft | 549 kts | 97° |
| 2026-04-26 03:21 | 23.09022 | 50.82824 | 38962 ft | 549 kts | 97° |
| 2026-04-26 03:22 | 23.07768 | 50.90935 | 38951 ft | 549 kts | 97° |
| 2026-04-26 03:22 | 23.06500 | 50.99105 | 38942 ft | 549 kts | 97° |
| 2026-04-26 03:23 | 23.05226 | 51.07284 | 38945 ft | 549 kts | 97° |
| 2026-04-26 03:23 | 23.03948 | 51.15460 | 38969 ft | 549 kts | 97° |
| 2026-04-26 03:24 | 23.02676 | 51.23571 | 38966 ft | 548 kts | 97° |
| 2026-04-26 03:24 | 23.01393 | 51.31728 | 38960 ft | 548 kts | 97° |
| 2026-04-26 03:25 | 23.00106 | 51.39879 | 38953 ft | 548 kts | 97° |
| 2026-04-26 03:25 | 22.98816 | 51.48024 | 38953 ft | 547 kts | 97° |
| 2026-04-26 03:26 | 22.97522 | 51.56163 | 38955 ft | 547 kts | 97° |
| 2026-04-26 03:26 | 22.96232 | 51.64246 | 38953 ft | 548 kts | 97° |
| 2026-04-26 03:27 | 22.94929 | 51.72391 | 38945 ft | 548 kts | 97° |
| 2026-04-26 03:27 | 22.93620 | 51.80538 | 38939 ft | 548 kts | 97° |
| 2026-04-26 03:28 | 22.92318 | 51.88622 | 38938 ft | 548 kts | 97° |
| 2026-04-26 03:28 | 22.91001 | 51.96769 | 38948 ft | 549 kts | 97° |
| 2026-04-26 03:29 | 22.89678 | 52.04923 | 38959 ft | 549 kts | 97° |
| 2026-04-26 03:29 | 22.88352 | 52.13069 | 38953 ft | 549 kts | 97° |
| 2026-04-26 03:30 | 22.87030 | 52.21167 | 38952 ft | 549 kts | 97° |
| 2026-04-26 03:30 | 22.85694 | 52.29317 | 38965 ft | 548 kts | 97° |
| 2026-04-26 03:31 | 22.84358 | 52.37447 | 38960 ft | 548 kts | 97° |
| 2026-04-26 03:31 | 22.83022 | 52.45568 | 38956 ft | 547 kts | 97° |
| 2026-04-26 03:32 | 22.82317 | 52.53671 | 38953 ft | 542 kts | 88° |
| 2026-04-26 03:32 | 22.82132 | 52.61838 | 38947 ft | 542 kts | 88° |
| 2026-04-26 03:33 | 22.81923 | 52.69998 | 38941 ft | 541 kts | 88° |
| 2026-04-26 03:33 | 22.81707 | 52.78153 | 38943 ft | 541 kts | 88° |
| 2026-04-26 03:34 | 22.81489 | 52.86248 | 38930 ft | 541 kts | 88° |
| 2026-04-26 03:34 | 22.81266 | 52.94405 | 38942 ft | 541 kts | 88° |
| 2026-04-26 03:35 | 22.81038 | 53.02562 | 38950 ft | 541 kts | 88° |
| 2026-04-26 03:35 | 22.80806 | 53.10713 | 38948 ft | 541 kts | 88° |
| 2026-04-26 03:36 | 22.80572 | 53.18792 | 38943 ft | 540 kts | 88° |
| 2026-04-26 03:36 | 22.80332 | 53.26928 | 38944 ft | 540 kts | 88° |
| 2026-04-26 03:37 | 22.80089 | 53.35052 | 38941 ft | 539 kts | 88° |
| 2026-04-26 03:37 | 22.79841 | 53.43175 | 38935 ft | 539 kts | 88° |
| 2026-04-26 03:38 | 22.79593 | 53.51233 | 38936 ft | 539 kts | 88° |
| 2026-04-26 03:38 | 22.79338 | 53.59338 | 38928 ft | 539 kts | 88° |
| 2026-04-26 03:39 | 22.79077 | 53.67468 | 38936 ft | 539 kts | 88° |
| 2026-04-26 03:39 | 22.78814 | 53.75584 | 38936 ft | 539 kts | 88° |
| 2026-04-26 03:40 | 22.78549 | 53.83642 | 38938 ft | 539 kts | 88° |
| 2026-04-26 03:40 | 22.78276 | 53.91748 | 38947 ft | 538 kts | 88° |
| 2026-04-26 03:41 | 22.78364 | 53.99815 | 38953 ft | 532 kts | 79° |
| 2026-04-26 03:41 | 22.79677 | 54.07638 | 38934 ft | 526 kts | 72° |
| 2026-04-26 03:42 | 22.81251 | 54.15327 | 38931 ft | 526 kts | 72° |
| 2026-04-26 03:42 | 22.82815 | 54.23061 | 38931 ft | 526 kts | 72° |
| 2026-04-26 03:43 | 22.84379 | 54.30801 | 38933 ft | 526 kts | 72° |
| 2026-04-26 03:43 | 22.85944 | 54.38547 | 38930 ft | 525 kts | 72° |
| 2026-04-26 03:44 | 22.87493 | 54.46235 | 38934 ft | 525 kts | 72° |
| 2026-04-26 03:44 | 22.89046 | 54.53971 | 38930 ft | 525 kts | 72° |
| 2026-04-26 03:45 | 22.90597 | 54.61713 | 38922 ft | 525 kts | 72° |
| 2026-04-26 03:45 | 22.92143 | 54.69449 | 38922 ft | 525 kts | 72° |
| 2026-04-26 03:46 | 22.93674 | 54.77130 | 38919 ft | 525 kts | 72° |
| 2026-04-26 03:47 | 22.95982 | 54.88748 | 38925 ft | 525 kts | 72° |
| 2026-04-26 03:47 | 22.97517 | 54.96496 | 38923 ft | 525 kts | 72° |
| 2026-04-26 03:48 | 22.99046 | 55.04246 | 38932 ft | 525 kts | 72° |
| 2026-04-26 03:48 | 23.00636 | 55.11919 | 38927 ft | 521 kts | 66° |
| 2026-04-26 03:49 | 23.03767 | 55.18808 | 38925 ft | 502 kts | 47° |
| 2026-04-26 03:49 | 23.08560 | 55.24084 | 38924 ft | 483 kts | 29° |
| 2026-04-26 03:50 | 23.14366 | 55.27450 | 38939 ft | 466 kts | 13° |
| 2026-04-26 03:50 | 23.20527 | 55.29313 | 38923 ft | 463 kts | 9° |
| 2026-04-26 03:51 | 23.26746 | 55.31148 | 38919 ft | 463 kts | 9° |
| 2026-04-26 03:51 | 23.32957 | 55.32985 | 38929 ft | 463 kts | 9° |
| 2026-04-26 03:52 | 23.39178 | 55.34823 | 38928 ft | 463 kts | 9° |
| 2026-04-26 03:52 | 23.45362 | 55.36651 | 38894 ft | 464 kts | 9° |
| 2026-04-26 03:52 | 23.48461 | 55.37569 | 38686 ft | 459 kts | 9° |
| 2026-04-26 03:53 | 23.51533 | 55.38481 | 38317 ft | 456 kts | 9° |
| 2026-04-26 03:53 | 23.54607 | 55.39389 | 37468 ft | 459 kts | 9° |
| 2026-04-26 03:53 | 23.57717 | 55.40304 | 36412 ft | 467 kts | 9° |
| 2026-04-26 03:53 | 23.60855 | 55.41231 | 35666 ft | 467 kts | 9° |
| 2026-04-26 03:54 | 23.63981 | 55.42158 | 34988 ft | 466 kts | 9° |
| 2026-04-26 03:54 | 23.67088 | 55.43079 | 33962 ft | 473 kts | 10° |
| 2026-04-26 03:54 | 23.70272 | 55.44022 | 33036 ft | 475 kts | 10° |
| 2026-04-26 03:54 | 23.73450 | 55.44966 | 32417 ft | 471 kts | 10° |
| 2026-04-26 03:55 | 23.76594 | 55.45901 | 32066 ft | 468 kts | 11° |
| 2026-04-26 03:55 | 23.79749 | 55.46838 | 31803 ft | 472 kts | 11° |
| 2026-04-26 03:55 | 23.82927 | 55.47781 | 31218 ft | 475 kts | 11° |
| 2026-04-26 03:55 | 23.86115 | 55.48728 | 30623 ft | 473 kts | 11° |
| 2026-04-26 03:56 | 23.89289 | 55.49672 | 30032 ft | 472 kts | 11° |
| 2026-04-26 03:56 | 23.92406 | 55.50599 | 29388 ft | 468 kts | 11° |
| 2026-04-26 03:56 | 23.95531 | 55.51528 | 28821 ft | 463 kts | 11° |
| 2026-04-26 03:56 | 23.98593 | 55.52569 | 28226 ft | 461 kts | 19° |
| 2026-04-26 03:57 | 24.01468 | 55.54130 | 27646 ft | 462 kts | 29° |
| 2026-04-26 03:57 | 24.04073 | 55.56180 | 27068 ft | 461 kts | 38° |
| 2026-04-26 03:57 | 24.06437 | 55.58540 | 26473 ft | 458 kts | 40° |
| 2026-04-26 03:57 | 24.08789 | 55.60879 | 25884 ft | 455 kts | 40° |
| 2026-04-26 03:58 | 24.11127 | 55.63192 | 25299 ft | 452 kts | 40° |
| 2026-04-26 03:58 | 24.13417 | 55.65460 | 24736 ft | 449 kts | 40° |
| 2026-04-26 03:58 | 24.15728 | 55.67740 | 24140 ft | 447 kts | 40° |
| 2026-04-26 03:58 | 24.18031 | 55.70017 | 23542 ft | 445 kts | 40° |
| 2026-04-26 03:59 | 24.20323 | 55.72287 | 22893 ft | 442 kts | 40° |
| 2026-04-26 03:59 | 24.22587 | 55.74535 | 22320 ft | 437 kts | 40° |
| 2026-04-26 03:59 | 24.24831 | 55.76766 | 21733 ft | 433 kts | 41° |
| 2026-04-26 03:59 | 24.27047 | 55.78970 | 21151 ft | 429 kts | 41° |
| 2026-04-26 04:00 | 24.29246 | 55.81158 | 20578 ft | 425 kts | 41° |
| 2026-04-26 04:00 | 24.31397 | 55.83299 | 20017 ft | 421 kts | 41° |
| 2026-04-26 04:00 | 24.33556 | 55.85448 | 19445 ft | 418 kts | 41° |
| 2026-04-26 04:00 | 24.35700 | 55.87582 | 18874 ft | 415 kts | 41° |
| 2026-04-26 04:01 | 24.37827 | 55.89701 | 18295 ft | 412 kts | 41° |
| 2026-04-26 04:01 | 24.39941 | 55.91808 | 17683 ft | 408 kts | 41° |
| 2026-04-26 04:01 | 24.42029 | 55.93890 | 17119 ft | 403 kts | 41° |
| 2026-04-26 04:01 | 24.44090 | 55.95946 | 16569 ft | 398 kts | 41° |
| 2026-04-26 04:02 | 24.46129 | 55.97977 | 16020 ft | 393 kts | 41° |
| 2026-04-26 04:02 | 24.48115 | 55.99959 | 15463 ft | 389 kts | 42° |
| 2026-04-26 04:02 | 24.50107 | 56.01948 | 14937 ft | 385 kts | 42° |
| 2026-04-26 04:02 | 24.52073 | 56.03913 | 14413 ft | 381 kts | 42° |
| 2026-04-26 04:03 | 24.54019 | 56.05858 | 13939 ft | 375 kts | 42° |
| 2026-04-26 04:03 | 24.55930 | 56.07774 | 13407 ft | 371 kts | 43° |
| 2026-04-26 04:03 | 24.57817 | 56.09667 | 12904 ft | 366 kts | 42° |
| 2026-04-26 04:03 | 24.59810 | 56.11372 | 12389 ft | 360 kts | 30° |
| 2026-04-26 04:04 | 24.62055 | 56.12449 | 11901 ft | 355 kts | 15° |
| 2026-04-26 04:04 | 24.64460 | 56.12956 | 11391 ft | 350 kts | 7° |
| 2026-04-26 04:04 | 24.66851 | 56.13372 | 10909 ft | 347 kts | 8° |
| 2026-04-26 04:04 | 24.69223 | 56.13808 | 10470 ft | 342 kts | 7° |
| 2026-04-26 04:05 | 24.71405 | 56.14214 | 10357 ft | 328 kts | 7° |
| 2026-04-26 04:05 | 24.73606 | 56.14624 | 10216 ft | 315 kts | 7° |
| 2026-04-26 04:05 | 24.75725 | 56.15018 | 10066 ft | 302 kts | 7° |
| 2026-04-26 04:05 | 24.77767 | 56.15204 | 9899 ft | 291 kts | 350° |
| 2026-04-26 04:06 | 24.79641 | 56.14532 | 9613 ft | 287 kts | 325° |
| 2026-04-26 04:06 | 24.81056 | 56.13031 | 9307 ft | 280 kts | 301° |
| 2026-04-26 04:06 | 24.82066 | 56.11227 | 9019 ft | 274 kts | 300° |
| 2026-04-26 04:06 | 24.83071 | 56.09469 | 8726 ft | 269 kts | 301° |
| 2026-04-26 04:07 | 24.84074 | 56.07753 | 8442 ft | 265 kts | 302° |
| 2026-04-26 04:07 | 24.85074 | 56.06064 | 8167 ft | 261 kts | 302° |
| 2026-04-26 04:07 | 24.86062 | 56.04405 | 7889 ft | 257 kts | 302° |
| 2026-04-26 04:07 | 24.87033 | 56.02768 | 7617 ft | 254 kts | 302° |
| 2026-04-26 04:08 | 24.87997 | 56.01142 | 7341 ft | 251 kts | 302° |
| 2026-04-26 04:08 | 24.88941 | 55.99552 | 7075 ft | 251 kts | 302° |
| 2026-04-26 04:08 | 24.89894 | 55.97945 | 6796 ft | 251 kts | 302° |
| 2026-04-26 04:08 | 24.90851 | 55.96325 | 6532 ft | 253 kts | 302° |
| 2026-04-26 04:09 | 24.91808 | 55.94705 | 6247 ft | 251 kts | 302° |
| 2026-04-26 04:09 | 24.92751 | 55.93098 | 5964 ft | 251 kts | 302° |
| 2026-04-26 04:09 | 24.93710 | 55.91475 | 5769 ft | 257 kts | 303° |
| 2026-04-26 04:09 | 24.94699 | 55.89805 | 5647 ft | 262 kts | 303° |
| 2026-04-26 04:10 | 24.95710 | 55.88102 | 5370 ft | 268 kts | 303° |
| 2026-04-26 04:10 | 24.96729 | 55.86381 | 4973 ft | 272 kts | 303° |
| 2026-04-26 04:10 | 24.97760 | 55.84646 | 4682 ft | 269 kts | 303° |
| 2026-04-26 04:10 | 24.98778 | 55.82923 | 4350 ft | 268 kts | 303° |
| 2026-04-26 04:11 | 24.99784 | 55.81219 | 3971 ft | 265 kts | 303° |
| 2026-04-26 04:11 | 25.00790 | 55.79511 | 3613 ft | 264 kts | 303° |
| 2026-04-26 04:11 | 25.01783 | 55.77825 | 3334 ft | 260 kts | 304° |
| 2026-04-26 04:11 | 25.02757 | 55.76174 | 3062 ft | 259 kts | 303° |
| 2026-04-26 04:12 | 25.03734 | 55.74516 | 2924 ft | 258 kts | 304° |
| 2026-04-26 04:12 | 25.04713 | 55.72864 | 2554 ft | 258 kts | 304° |
| 2026-04-26 04:12 | 25.05712 | 55.71194 | 2063 ft | 262 kts | 304° |
| 2026-04-26 04:12 | 25.06690 | 55.69549 | 2012 ft | 247 kts | 303° |
| 2026-04-26 04:13 | 25.07586 | 55.68006 | 2016 ft | 232 kts | 304° |
| 2026-04-26 04:13 | 25.08432 | 55.66552 | 2015 ft | 219 kts | 304° |
| 2026-04-26 04:13 | 25.09233 | 55.65184 | 2016 ft | 206 kts | 303° |
| 2026-04-26 04:13 | 25.09977 | 55.63919 | 2018 ft | 192 kts | 304° |
| 2026-04-26 04:14 | 25.10677 | 55.62728 | 2017 ft | 176 kts | 303° |
| 2026-04-26 04:14 | 25.11330 | 55.61560 | 2017 ft | 182 kts | 302° |
| 2026-04-26 04:14 | 25.11993 | 55.60362 | 2012 ft | 183 kts | 303° |
| 2026-04-26 04:14 | 25.12652 | 55.59154 | 2010 ft | 184 kts | 302° |
| 2026-04-26 04:15 | 25.13321 | 55.57950 | 2008 ft | 184 kts | 302° |
| 2026-04-26 04:15 | 25.13991 | 55.56742 | 2007 ft | 184 kts | 303° |
| 2026-04-26 04:15 | 25.14685 | 55.55552 | 2009 ft | 185 kts | 305° |
| 2026-04-26 04:15 | 25.15363 | 55.54368 | 2007 ft | 184 kts | 303° |
| 2026-04-26 04:16 | 25.16026 | 55.53160 | 2005 ft | 183 kts | 303° |
| 2026-04-26 04:16 | 25.16663 | 55.52017 | 2005 ft | 169 kts | 303° |
| 2026-04-26 04:16 | 25.17268 | 55.50920 | 2004 ft | 168 kts | 302° |
| 2026-04-26 04:16 | 25.17878 | 55.49820 | 2004 ft | 167 kts | 303° |
| 2026-04-26 04:17 | 25.18448 | 55.48792 | 1876 ft | 148 kts | 303° |
| 2026-04-26 04:17 | 25.18960 | 55.47865 | 1691 ft | 138 kts | 303° |
| 2026-04-26 04:17 | 25.19456 | 55.46970 | 1516 ft | 136 kts | 303° |
| 2026-04-26 04:17 | 25.19944 | 55.46086 | 1343 ft | 138 kts | 303° |
| 2026-04-26 04:18 | 25.20438 | 55.45185 | 1176 ft | 137 kts | 303° |
| 2026-04-26 04:18 | 25.20938 | 55.44288 | 998 ft | 138 kts | 302° |
| 2026-04-26 04:18 | 25.21438 | 55.43380 | 840 ft | 141 kts | 300° |
| 2026-04-26 04:18 | 25.21952 | 55.42444 | 672 ft | 142 kts | 301° |
| 2026-04-26 04:19 | 25.22469 | 55.41523 | 504 ft | 141 kts | 300° |
| 2026-04-26 04:19 | 25.22981 | 55.40591 | 297 ft | 142 kts | 299° |
| 2026-04-26 04:19 | 25.23493 | 55.39666 | 116 ft | 142 kts | 298° |
| 2026-04-26 04:19 | 25.23991 | 55.38766 | 30 ft | 128 kts | 299° |
| 2026-04-26 04:20 | 25.24376 | 55.38066 | 30 ft | 88 kts | 302° |
| 2026-04-26 04:20 | 25.24634 | 55.37603 | 28 ft | 52 kts | 301° |
| 2026-04-26 04:20 | 25.24758 | 55.37351 | 28 ft | 24 kts | 287° |
| 2026-04-26 04:20 | 25.24781 | 55.37198 | 29 ft | 20 kts | 272° |
| 2026-04-26 04:21 | 25.24784 | 55.37100 | 28 ft | 11 kts | 272° |
| 2026-04-26 04:21 | 25.24789 | 55.37003 | 27 ft | 14 kts | 278° |
| 2026-04-26 04:21 | 25.24816 | 55.36911 | 27 ft | 9 kts | 294° |
| 2026-04-26 04:21 | 25.24840 | 55.36852 | 27 ft | 10 kts | 291° |
| 2026-04-26 04:22 | 25.24866 | 55.36761 | 27 ft | 14 kts | 283° |
| 2026-04-26 04:22 | 25.24901 | 55.36650 | 26 ft | 17 kts | 299° |
| 2026-04-26 04:22 | 25.24958 | 55.36546 | 26 ft | 17 kts | 299° |
| 2026-04-26 04:22 | 25.24972 | 55.36461 | 26 ft | 9 kts | 234° |
| 2026-04-26 04:23 | 25.24911 | 55.36419 | 26 ft | 11 kts | 212° |
| 2026-04-26 04:23 | 25.24877 | 55.36395 | 26 ft | 5 kts | 212° |
| 2026-04-26 04:23 | 25.24853 | 55.36377 | 26 ft | 1 kts | 214° |
| 2026-04-26 04:23 | 25.24845 | 55.36372 | 26 ft | 0 kts | 211° |